createdAt,value
2022-11-09T00:02:09.210Z,99357.63
2022-11-09T00:04:57.169Z,99374.63
2022-11-09T00:07:45.086Z,99384.66
2022-11-09T00:10:33.254Z,99381.81
2022-11-09T00:13:21.867Z,99388.75
2022-11-09T00:16:12.523Z,99411.81
2022-11-09T00:19:01.817Z,99438.13
2022-11-09T00:21:50.033Z,99447.78
2022-11-09T00:24:37.929Z,99462.16
2022-11-09T00:27:25.827Z,99455.84
2022-11-09T00:30:14.042Z,99461.34
2022-11-09T00:33:01.974Z,99450.09
2022-11-09T00:35:51.255Z,99457.97
2022-11-09T00:38:40.697Z,99457.97
2022-11-09T00:41:29.110Z,99462.28
2022-11-09T00:44:17.074Z,99449.78
2022-11-09T00:47:05.511Z,99445.72
2022-11-09T00:49:53.410Z,99440.28
2022-11-09T00:52:42.770Z,99431.53
2022-11-09T00:55:30.679Z,99429.06
2022-11-09T00:58:18.820Z,99440.03
2022-11-09T01:01:08.713Z,99451.47
2022-11-09T01:03:56.710Z,99477.19
2022-11-09T01:06:44.826Z,99475.31
2022-11-09T01:09:34.240Z,99483.56
2022-11-09T01:12:22.137Z,99493.06
2022-11-09T01:15:12.552Z,99481.34
2022-11-09T01:18:00.504Z,99480.47
2022-11-09T01:20:49.739Z,99473.81
2022-11-09T01:23:38.260Z,99469.00
2022-11-09T01:26:27.538Z,99466.44
2022-11-09T01:29:15.488Z,99478.03
2022-11-09T01:32:03.480Z,99466.25
2022-11-09T01:34:52.843Z,99483.22
2022-11-09T01:37:40.751Z,99477.59
2022-11-09T01:40:32.015Z,99476.53
2022-11-09T01:43:24.466Z,99470.66
2022-11-09T01:46:19.055Z,99465.13
2022-11-09T01:49:14.285Z,99461.59
2022-11-09T01:52:07.024Z,99464.75
2022-11-09T01:55:00.097Z,99459.22
2022-11-09T01:57:52.989Z,99459.59
2022-11-09T02:00:46.942Z,99459.28
2022-11-09T02:03:38.767Z,99462.38
2022-11-09T02:06:29.944Z,99467.88
2022-11-09T02:09:27.673Z,99453.72
2022-11-09T02:12:18.487Z,99442.53
2022-11-09T02:15:11.243Z,99439.50
2022-11-09T02:18:01.260Z,99444.19
2022-11-09T02:20:53.126Z,99455.63
2022-11-09T02:23:43.621Z,99451.31
2022-11-09T02:26:35.691Z,99455.63
2022-11-09T02:29:27.248Z,99449.31
2022-11-09T02:32:20.620Z,99439.03
2022-11-09T02:35:10.532Z,99445.03
2022-11-09T02:37:59.862Z,99448.06
2022-11-09T02:40:52.768Z,99444.94
2022-11-09T02:43:41.728Z,99437.44
2022-11-09T02:46:34.521Z,99432.66
2022-11-09T02:49:23.033Z,99411.09
2022-11-09T02:52:11.019Z,99421.59
2022-11-09T02:55:00.966Z,99417.28
2022-11-09T02:57:48.966Z,99412.63
2022-11-09T03:00:37.284Z,99354.50
2022-11-09T03:03:25.918Z,99383.38
2022-11-09T03:06:14.199Z,99379.34
2022-11-09T03:09:09.700Z,99383.75
2022-11-09T03:11:59.017Z,99385.28
2022-11-09T03:14:47.001Z,99389.16
2022-11-09T03:17:35.947Z,99378.53
2022-11-09T03:20:24.026Z,99377.78
2022-11-09T03:23:12.693Z,99377.47
2022-11-09T03:26:01.448Z,99382.56
2022-11-09T03:28:51.725Z,99378.28
2022-11-09T03:31:39.801Z,99378.25
2022-11-09T03:34:30.664Z,99366.91
2022-11-09T03:37:18.908Z,99364.19
2022-11-09T03:40:08.259Z,99369.31
2022-11-09T03:42:56.179Z,99389.78
2022-11-09T03:45:47.404Z,99388.28
2022-11-09T03:48:35.363Z,99388.38
2022-11-09T03:51:23.471Z,99383.22
2022-11-09T03:54:11.407Z,99389.50
2022-11-09T03:56:59.365Z,99388.78
2022-11-09T03:59:47.283Z,99400.53
2022-11-09T04:02:36.619Z,99405.69
2022-11-09T04:05:25.080Z,99413.22
2022-11-09T04:08:13.024Z,99410.00
2022-11-09T04:11:01.230Z,99408.09
2022-11-09T04:13:49.159Z,99413.97
2022-11-09T04:16:37.282Z,99424.56
2022-11-09T04:19:26.571Z,99421.50
2022-11-09T04:22:14.581Z,99436.16
2022-11-09T04:25:02.624Z,99414.47
2022-11-09T04:27:55.439Z,99426.97
2022-11-09T04:30:43.820Z,99432.19
2022-11-09T04:33:31.798Z,99426.69
2022-11-09T04:36:21.123Z,99427.41
2022-11-09T04:39:09.324Z,99427.34
2022-11-09T04:41:57.248Z,99424.28
2022-11-09T04:44:45.178Z,99418.09
2022-11-09T04:47:33.422Z,99416.19
2022-11-09T04:50:21.398Z,99419.59
2022-11-09T04:53:16.315Z,99416.53
2022-11-09T04:56:05.168Z,99433.75
2022-11-09T04:58:53.161Z,99437.88
2022-11-09T05:01:41.159Z,99437.03
2022-11-09T05:04:29.112Z,99426.38
2022-11-09T05:07:17.125Z,99435.50
2022-11-09T05:10:07.176Z,99441.00
2022-11-09T05:12:58.625Z,99443.06
2022-11-09T05:15:46.605Z,99448.09
2022-11-09T05:18:34.628Z,99428.41
2022-11-09T05:21:22.708Z,99441.72
2022-11-09T05:24:09.991Z,99440.94
2022-11-09T05:26:59.290Z,99449.94
2022-11-09T05:29:47.207Z,99434.94
2022-11-09T05:32:37.381Z,99434.28
2022-11-09T05:35:25.651Z,99459.09
2022-11-09T05:38:13.621Z,99458.81
2022-11-09T05:41:01.538Z,99464.72
2022-11-09T05:43:51.033Z,99461.03
2022-11-09T05:46:39.010Z,99458.38
2022-11-09T05:49:26.939Z,99465.88
2022-11-09T05:52:14.861Z,99459.13
2022-11-09T05:55:02.925Z,99450.84
2022-11-09T05:57:50.838Z,99435.13
2022-11-09T06:00:40.105Z,99436.72
2022-11-09T06:03:28.045Z,99448.09
2022-11-09T06:06:17.768Z,99440.66
2022-11-09T06:09:05.709Z,99451.31
2022-11-09T06:11:53.724Z,99442.25
2022-11-09T06:14:41.670Z,99450.16
2022-11-09T06:17:30.964Z,99456.75
2022-11-09T06:20:18.926Z,99455.97
2022-11-09T06:23:06.943Z,99447.34
2022-11-09T06:25:58.608Z,99457.84
2022-11-09T06:28:46.536Z,99465.88
2022-11-09T06:31:34.930Z,99474.56
2022-11-09T06:34:24.215Z,99464.34
2022-11-09T06:37:12.142Z,99457.69
2022-11-09T06:40:00.111Z,99468.66
2022-11-09T06:42:48.311Z,99477.28
2022-11-09T06:45:36.705Z,99486.75
2022-11-09T06:48:24.941Z,99482.47
2022-11-09T06:51:14.199Z,99496.94
2022-11-09T06:54:02.104Z,99475.69
2022-11-09T06:56:50.045Z,99468.78
2022-11-09T06:59:37.951Z,99472.25
2022-11-09T07:02:25.899Z,99458.91
2022-11-09T07:04:53.583Z,99451.09
2022-11-09T07:07:27.728Z,99453.75
2022-11-09T07:09:57.337Z,99428.16
2022-11-09T07:12:25.008Z,99433.63
2022-11-09T07:14:52.651Z,99428.16
2022-11-09T07:17:20.304Z,99421.41
2022-11-09T07:19:48.032Z,99439.50
2022-11-09T07:22:15.711Z,99437.53
2022-11-09T07:24:44.761Z,99435.50
2022-11-09T07:27:12.385Z,99438.34
2022-11-09T07:29:39.995Z,99442.25
2022-11-09T07:32:07.643Z,99454.84
2022-11-09T07:34:35.261Z,99463.56
2022-11-09T07:37:03.018Z,99474.91
2022-11-09T07:39:30.679Z,99479.22
2022-11-09T07:41:59.657Z,99472.63
2022-11-09T07:44:28.293Z,99476.91
2022-11-09T07:46:55.898Z,99489.56
2022-11-09T07:49:23.560Z,99476.13
2022-11-09T07:51:51.266Z,99479.22
2022-11-09T07:54:18.872Z,99500.50
2022-11-09T07:56:46.516Z,99515.84
2022-11-09T07:59:15.471Z,99522.88
2022-11-09T08:01:43.229Z,99525.31
2022-11-09T08:04:10.890Z,99521.84
2022-11-09T08:06:38.874Z,99533.28
2022-11-09T08:09:06.562Z,99523.41
2022-11-09T08:11:34.204Z,99530.91
2022-11-09T08:14:01.851Z,99548.56
2022-11-09T08:16:36.483Z,99549.41
2022-11-09T08:19:08.798Z,99548.66
2022-11-09T08:21:36.616Z,99555.72
2022-11-09T08:24:05.520Z,99561.31
2022-11-09T08:26:33.593Z,99558.09
2022-11-09T08:29:01.224Z,99555.38
2022-11-09T08:31:29.037Z,99558.50
2022-11-09T08:33:58.030Z,99546.63
2022-11-09T08:36:27.788Z,99558.84
2022-11-09T08:38:55.492Z,99559.25
2022-11-09T08:41:23.117Z,99556.06
2022-11-09T08:43:50.768Z,99566.72
2022-11-09T08:46:18.471Z,99573.44
2022-11-09T08:48:46.163Z,99574.56
2022-11-09T08:51:15.183Z,99569.47
2022-11-09T08:53:42.847Z,99562.78
2022-11-09T08:56:12.529Z,99574.59
2022-11-09T08:58:40.604Z,99568.31
2022-11-09T09:01:12.435Z,99583.19
2022-11-09T09:03:44.332Z,99576.84
2022-11-09T09:06:12.041Z,99594.94
2022-11-09T09:08:41.005Z,99591.00
2022-11-09T09:11:08.925Z,99587.81
2022-11-09T09:13:40.507Z,99592.19
2022-11-09T09:16:12.125Z,99581.53
2022-11-09T09:18:39.779Z,99576.16
2022-11-09T09:21:08.353Z,99579.50
2022-11-09T09:23:36.487Z,99586.28
2022-11-09T09:26:05.995Z,99581.50
2022-11-09T09:28:34.734Z,99588.22
2022-11-09T09:31:02.826Z,99591.53
2022-11-09T09:33:30.493Z,99592.28
2022-11-09T09:35:58.625Z,99594.72
2022-11-09T09:38:26.905Z,99595.47
2022-11-09T09:40:59.116Z,99593.78
2022-11-09T09:43:39.737Z,99594.47
2022-11-09T09:46:18.426Z,99597.59
2022-11-09T09:48:52.562Z,99605.56
2022-11-09T09:51:25.354Z,99612.66
2022-11-09T09:53:58.744Z,99611.13
2022-11-09T09:56:31.290Z,99614.56
2022-11-09T09:59:07.227Z,99618.00
2022-11-09T10:01:39.038Z,99620.47
2022-11-09T10:04:16.758Z,99627.41
2022-11-09T10:07:00.448Z,99625.88
2022-11-09T10:09:44.791Z,99608.03
2022-11-09T10:12:22.784Z,99613.38
2022-11-09T10:15:14.227Z,99606.94
2022-11-09T10:17:52.710Z,99601.94
2022-11-09T10:20:36.366Z,99612.63
2022-11-09T10:23:22.975Z,99595.59
2022-11-09T10:26:04.296Z,99601.88
2022-11-09T10:29:01.284Z,99597.00
2022-11-09T10:31:25.185Z,99589.59
2022-11-09T10:33:56.992Z,99604.41
2022-11-09T10:36:31.752Z,99602.91
2022-11-09T10:39:02.125Z,99577.06
2022-11-09T10:41:48.601Z,99595.84
2022-11-09T10:44:35.235Z,99594.50
2022-11-09T10:47:24.040Z,99585.13
2022-11-09T10:50:33.618Z,99598.72
2022-11-09T10:53:21.620Z,99593.47
2022-11-09T10:56:20.299Z,99507.69
2022-11-09T10:59:37.619Z,99593.53
2022-11-09T11:02:45.026Z,99590.00
2022-11-09T11:05:33.348Z,99592.56
2022-11-09T11:08:26.255Z,99602.13
2022-11-09T11:11:37.392Z,99602.22
2022-11-09T11:14:30.361Z,99587.16
2022-11-09T11:17:24.076Z,99580.81
2022-11-09T11:20:27.507Z,99562.63
2022-11-09T11:23:16.257Z,99594.31
2022-11-09T11:26:16.581Z,99597.28
2022-11-09T11:29:11.051Z,99597.28
2022-11-09T11:31:58.026Z,99599.31
2022-11-09T11:35:01.549Z,99605.50
2022-11-09T11:38:03.397Z,99591.34
2022-11-09T11:41:01.706Z,99592.28
2022-11-09T11:43:55.151Z,99586.47
2022-11-09T11:46:47.161Z,99591.16
2022-11-09T11:50:17.833Z,99582.00
2022-11-09T11:53:14.232Z,99583.00
2022-11-09T11:56:20.345Z,99567.25
2022-11-09T11:59:34.318Z,99587.22
2022-11-09T12:02:58.571Z,99593.56
2022-11-09T12:06:07.240Z,99583.47
2022-11-09T12:09:08.734Z,99575.25
2022-11-09T12:12:12.911Z,99589.25
2022-11-09T12:15:19.709Z,99588.78
2022-11-09T12:18:19.128Z,99576.78
2022-11-09T12:21:15.551Z,99577.50
2022-11-09T12:24:20.891Z,99572.69
2022-11-09T12:27:32.309Z,99514.28
2022-11-09T12:30:22.044Z,99573.69
2022-11-09T12:33:14.135Z,99572.84
2022-11-09T12:36:06.218Z,99573.84
2022-11-09T12:38:58.953Z,99567.59
2022-11-09T12:41:49.855Z,99568.16
2022-11-09T12:44:40.968Z,99563.47
2022-11-09T12:47:31.561Z,99569.09
2022-11-09T12:50:21.174Z,99543.44
2022-11-09T12:53:08.528Z,99561.38
2022-11-09T12:55:58.915Z,99566.59
2022-11-09T12:58:46.795Z,99562.03
2022-11-09T13:01:48.345Z,99555.16
2022-11-09T13:04:35.273Z,99556.78
2022-11-09T13:07:31.809Z,99558.66
2022-11-09T13:10:34.342Z,99555.63
2022-11-09T13:13:26.232Z,99559.88
2022-11-09T13:16:33.755Z,99564.09
2022-11-09T13:19:50.975Z,99565.38
2022-11-09T13:23:00.159Z,99572.59
2022-11-09T13:25:51.076Z,99582.06
2022-11-09T13:29:10.600Z,99559.13
2022-11-09T13:32:03.675Z,99571.41
2022-11-09T13:34:52.065Z,99570.94
2022-11-09T13:37:49.133Z,99575.03
2022-11-09T13:40:44.680Z,99566.06
2022-11-09T13:43:33.484Z,99551.53
2022-11-09T13:46:30.204Z,99570.94
2022-11-09T13:49:47.816Z,99576.53
2022-11-09T13:52:52.213Z,99576.09
2022-11-09T13:55:39.919Z,99560.69
2022-11-09T13:58:31.392Z,99576.53
2022-11-09T14:01:34.339Z,99575.38
2022-11-09T14:04:27.061Z,99582.25
2022-11-09T14:07:24.001Z,99587.69
2022-11-09T14:10:22.405Z,99570.09
2022-11-09T14:13:31.558Z,99564.44
2022-11-09T14:16:26.537Z,99567.44
2022-11-09T14:19:24.916Z,99568.28
2022-11-09T14:22:17.607Z,99564.84
2022-11-09T14:25:15.097Z,99583.59
2022-11-09T14:28:01.458Z,99579.84
2022-11-09T14:30:48.656Z,99594.13
2022-11-09T14:33:36.317Z,99589.81
2022-11-09T14:36:22.542Z,99591.88
2022-11-09T14:39:23.341Z,99552.69
2022-11-09T14:42:18.710Z,99594.63
2022-11-09T14:45:07.985Z,99585.69
2022-11-09T14:47:57.357Z,99555.69
2022-11-09T14:50:43.822Z,99595.03
2022-11-09T14:53:32.718Z,99592.19
2022-11-09T14:56:23.038Z,99589.59
2022-11-09T14:59:15.283Z,99579.88
2022-11-09T15:02:05.496Z,99590.38
2022-11-09T15:04:53.656Z,99522.00
2022-11-09T15:07:39.976Z,99591.38
2022-11-09T15:10:29.556Z,99604.38
2022-11-09T15:13:17.846Z,99602.22
2022-11-09T15:16:05.683Z,99622.28
2022-11-09T15:18:51.628Z,99621.06
2022-11-09T15:21:39.623Z,99622.50
2022-11-09T15:24:28.034Z,99621.78
2022-11-09T15:27:31.914Z,99625.53
2022-11-09T15:30:31.441Z,99624.22
2022-11-09T15:33:25.288Z,99628.78
2022-11-09T15:36:26.356Z,99635.94
2022-11-09T15:39:17.134Z,99623.28
2022-11-09T15:42:03.742Z,99627.31
2022-11-09T15:44:53.111Z,99635.28
2022-11-09T15:47:40.697Z,99628.50
2022-11-09T15:50:28.466Z,99635.66
2022-11-09T15:53:15.306Z,99638.88
2022-11-09T15:56:01.618Z,99641.25
2022-11-09T15:58:49.167Z,99638.84
2022-11-09T16:01:36.037Z,99639.50
2022-11-09T16:04:23.389Z,99644.31
2022-11-09T16:07:14.385Z,99646.69
2022-11-09T16:10:00.710Z,99643.22
2022-11-09T16:12:47.138Z,99642.84
2022-11-09T16:15:34.356Z,99647.59
2022-11-09T16:18:25.649Z,99639.88
2022-11-09T16:21:15.403Z,99658.78
2022-11-09T16:24:01.939Z,99651.22
2022-11-09T16:26:48.638Z,99663.19
2022-11-09T16:29:34.839Z,99665.94
2022-11-09T16:32:21.309Z,99666.34
2022-11-09T16:35:26.090Z,99681.28
2022-11-09T16:38:14.080Z,99681.75
2022-11-09T16:41:01.988Z,99682.13
2022-11-09T16:43:51.226Z,99680.31
2022-11-09T16:46:37.660Z,99689.78
2022-11-09T16:49:23.797Z,99692.06
2022-11-09T16:52:10.518Z,99701.16
2022-11-09T16:54:58.183Z,99708.00
2022-11-09T16:57:46.094Z,99712.72
2022-11-09T17:00:55.728Z,99717.50
2022-11-09T17:03:38.545Z,99722.69
2022-11-09T17:06:25.157Z,99727.84
2022-11-09T17:09:11.318Z,99728.34
2022-11-09T17:11:59.245Z,99737.44
2022-11-09T17:14:45.611Z,99733.88
2022-11-09T17:17:31.747Z,99739.44
2022-11-09T17:20:18.464Z,99727.66
2022-11-09T17:23:04.659Z,99742.25
2022-11-09T17:25:58.151Z,99688.28
2022-11-09T17:28:46.101Z,99748.50
2022-11-09T17:31:32.640Z,99750.09
2022-11-09T17:34:19.042Z,99756.00
2022-11-09T17:37:06.019Z,99757.97
2022-11-09T17:39:52.328Z,99765.13
2022-11-09T17:42:38.732Z,99775.03
2022-11-09T17:45:26.474Z,99780.19
2022-11-09T17:48:12.866Z,99786.50
2022-11-09T17:50:59.114Z,99790.03
2022-11-09T17:53:45.884Z,99785.25
2022-11-09T17:56:34.099Z,99783.22
2022-11-09T17:59:20.492Z,99778.09
2022-11-09T18:02:07.791Z,99783.34
2022-11-09T18:04:53.984Z,99786.56
2022-11-09T18:07:40.388Z,99787.72
2022-11-09T18:10:26.491Z,99805.47
2022-11-09T18:13:12.755Z,99791.66
2022-11-09T18:15:59.246Z,99797.63
2022-11-09T18:18:47.141Z,99806.72
2022-11-09T18:21:33.952Z,99810.66
2022-11-09T18:24:20.426Z,99816.97
2022-11-09T18:27:06.444Z,99817.81
2022-11-09T18:29:56.117Z,99821.28
2022-11-09T18:32:42.366Z,99824.06
2022-11-09T18:35:29.720Z,99829.63
2022-11-09T18:38:19.970Z,99830.38
2022-11-09T18:41:09.686Z,99830.81
2022-11-09T18:43:57.737Z,99836.38
2022-11-09T18:46:43.889Z,99828.09
2022-11-09T18:49:30.315Z,99831.63
2022-11-09T18:52:17.809Z,99838.69
2022-11-09T18:55:05.027Z,99847.09
2022-11-09T18:57:51.035Z,99843.13
2022-11-09T19:00:37.187Z,99841.91
2022-11-09T19:03:23.608Z,99859.31
2022-11-09T19:06:13.171Z,99860.88
2022-11-09T19:09:18.398Z,99864.84
2022-11-09T19:12:08.004Z,99863.69
2022-11-09T19:14:54.386Z,99866.81
2022-11-09T19:17:40.774Z,99869.19
2022-11-09T19:20:27.121Z,99873.94
2022-11-09T19:23:13.586Z,99876.31
2022-11-09T19:26:02.891Z,99875.53
2022-11-09T19:28:49.006Z,99889.34
2022-11-09T19:31:35.926Z,99886.59
2022-11-09T19:34:22.716Z,99888.94
2022-11-09T19:37:09.689Z,99887.78
2022-11-09T19:39:56.019Z,99897.66
2022-11-09T19:42:43.730Z,99896.06
2022-11-09T19:45:29.903Z,99903.16
2022-11-09T19:48:16.011Z,99911.47
2022-11-09T19:51:03.526Z,99901.22
2022-11-09T19:53:50.750Z,99915.41
2022-11-09T19:56:37.942Z,99927.25
2022-11-09T19:59:25.798Z,99930.38
2022-11-09T20:02:12.010Z,99935.13
2022-11-09T20:04:58.535Z,99937.50
2022-11-09T20:07:44.790Z,99933.19
2022-11-09T20:10:30.958Z,99940.25
2022-11-09T20:13:18.175Z,99936.69
2022-11-09T20:16:07.907Z,99943.78
2022-11-09T20:18:54.429Z,99961.97
2022-11-09T20:21:41.095Z,99963.16
2022-11-09T20:24:27.403Z,99969.06
2022-11-09T20:27:14.515Z,99969.06
2022-11-09T20:30:00.658Z,99974.63
2022-11-09T20:32:48.671Z,99976.19
2022-11-09T20:35:34.807Z,99972.25
2022-11-09T20:38:21.856Z,99975.03
2022-11-09T20:41:11.035Z,99970.25
2022-11-09T20:43:57.671Z,99982.50
2022-11-09T20:46:43.978Z,99980.50
2022-11-09T20:49:31.603Z,99977.34
2022-11-09T20:52:17.916Z,99980.53
2022-11-09T20:55:04.655Z,99991.59
2022-11-09T20:57:50.810Z,99995.13
2022-11-09T21:00:37.887Z,100005.78
2022-11-09T21:03:43.608Z,100013.31
2022-11-09T21:06:51.549Z,100016.44
2022-11-09T21:09:58.189Z,100014.47
2022-11-09T21:13:04.722Z,100023.97
2022-11-09T21:16:13.187Z,100024.75
2022-11-09T21:19:19.742Z,100023.13
2022-11-09T21:22:47.881Z,100030.63
2022-11-09T21:26:11.866Z,100032.25
2022-11-09T21:29:38.788Z,100033.38
2022-11-09T21:32:45.327Z,100041.69
2022-11-09T21:35:52.621Z,100043.25
2022-11-09T21:39:02.101Z,100054.28
2022-11-09T21:42:08.900Z,100057.84
2022-11-09T21:45:15.744Z,100057.44
2022-11-09T21:48:22.627Z,100071.66
2022-11-09T21:51:29.598Z,100074.81
2022-11-09T21:54:37.519Z,100085.81
2022-11-09T21:57:44.032Z,100077.91
2022-11-09T22:00:50.473Z,100086.56
2022-11-09T22:03:56.911Z,100094.41
2022-11-09T22:07:03.476Z,100099.88
2022-11-09T22:10:11.839Z,100099.41
2022-11-09T22:13:36.331Z,100095.78
2022-11-09T22:16:42.875Z,100103.28
2022-11-09T22:20:07.200Z,100119.75
2022-11-09T22:23:13.830Z,100112.97
2022-11-09T22:26:21.623Z,100126.00
2022-11-09T22:29:28.130Z,100124.84
2022-11-09T22:32:34.829Z,100126.41
2022-11-09T22:35:41.543Z,100127.59
2022-11-09T22:38:48.356Z,100131.91
2022-11-09T22:41:56.409Z,100153.97
2022-11-09T22:45:03.384Z,100150.41
2022-11-09T22:48:10.171Z,100158.06
2022-11-09T22:51:18.387Z,100154.81
2022-11-09T22:54:24.947Z,100159.88
2022-11-09T22:57:32.939Z,100162.72
2022-11-09T23:00:41.580Z,100173.28
2022-11-09T23:03:48.122Z,100175.69
2022-11-09T23:06:54.700Z,100186.31
2022-11-09T23:10:01.303Z,100181.19
2022-11-09T23:13:08.967Z,100112.97
2022-11-09T23:16:15.300Z,100188.53
2022-11-09T23:19:21.672Z,100191.22
2022-11-09T23:22:27.950Z,100194.38
2022-11-09T23:25:52.176Z,100189.06
2022-11-09T23:29:00.593Z,100186.50
2022-11-09T23:32:07.005Z,100198.13
2022-11-09T23:35:14.013Z,100170.56
2022-11-09T23:38:20.409Z,100206.00
2022-11-09T23:41:26.770Z,100206.50
2022-11-09T23:44:34.586Z,100216.44
2022-11-09T23:47:40.939Z,100211.63
2022-11-09T23:50:48.609Z,100216.53
2022-11-09T23:53:55.240Z,100216.38
2022-11-09T23:57:01.534Z,100220.84
